sensor_id;sensor_type;location;lat;lon;timestamp;temperature;humidity
52305;DHT22;38248;52.722;6.734;2022-12-18T00:01:33;-3.60;99.90
52305;DHT22;38248;52.722;6.734;2022-12-18T00:03:59;-3.60;99.90
52305;DHT22;38248;52.722;6.734;2022-12-18T00:06:26;-3.60;99.90
52305;DHT22;38248;52.722;6.734;2022-12-18T00:08:52;-3.70;99.90
52305;DHT22;38248;52.722;6.734;2022-12-18T00:11:19;-3.70;99.90
52305;DHT22;38248;52.722;6.734;2022-12-18T00:13:45;-3.60;99.90
52305;DHT22;38248;52.722;6.734;2022-12-18T00:16:18;-3.80;99.90
52305;DHT22;38248;52.722;6.734;2022-12-18T00:18:48;-3.80;99.90
52305;DHT22;38248;52.722;6.734;2022-12-18T00:21:17;-3.80;99.90
52305;DHT22;38248;52.722;6.734;2022-12-18T00:23:43;-3.70;99.90
52305;DHT22;38248;52.722;6.734;2022-12-18T00:26:31;-3.90;99.90
52305;DHT22;38248;52.722;6.734;2022-12-18T00:29:04;-3.80;99.90
52305;DHT22;38248;52.722;6.734;2022-12-18T00:31:30;-3.90;99.90
52305;DHT22;38248;52.722;6.734;2022-12-18T00:33:56;-4.00;99.90
52305;DHT22;38248;52.722;6.734;2022-12-18T00:36:25;-4.00;99.90
52305;DHT22;38248;52.722;6.734;2022-12-18T00:38:54;-4.00;99.90
52305;DHT22;38248;52.722;6.734;2022-12-18T00:41:20;-3.80;99.90
52305;DHT22;38248;52.722;6.734;2022-12-18T00:44:05;-4.20;99.90
52305;DHT22;38248;52.722;6.734;2022-12-18T00:46:31;-4.20;99.90
52305;DHT22;38248;52.722;6.734;2022-12-18T00:48:56;-4.20;99.90
52305;DHT22;38248;52.722;6.734;2022-12-18T00:51:22;-4.30;99.90
52305;DHT22;38248;52.722;6.734;2022-12-18T00:53:48;-4.40;99.90
52305;DHT22;38248;52.722;6.734;2022-12-18T00:56:14;-4.50;99.90
52305;DHT22;38248;52.722;6.734;2022-12-18T00:58:39;-4.50;99.90
52305;DHT22;38248;52.722;6.734;2022-12-18T01:01:05;-4.60;99.90
52305;DHT22;38248;52.722;6.734;2022-12-18T01:03:31;-4.60;99.90
52305;DHT22;38248;52.722;6.734;2022-12-18T01:05:56;-4.40;99.90
52305;DHT22;38248;52.722;6.734;2022-12-18T01:08:22;-4.70;99.90
52305;DHT22;38248;52.722;6.734;2022-12-18T01:10:48;-4.80;99.90
52305;DHT22;38248;52.722;6.734;2022-12-18T01:13:13;-4.90;99.90
52305;DHT22;38248;52.722;6.734;2022-12-18T01:15:39;-4.90;99.90
52305;DHT22;38248;52.722;6.734;2022-12-18T01:18:05;-5.00;99.90
52305;DHT22;38248;52.722;6.734;2022-12-18T07:27:34;-7.20;99.90
52305;DHT22;38248;52.722;6.734;2022-12-18T07:30:00;-7.20;99.90
52305;DHT22;38248;52.722;6.734;2022-12-18T07:32:25;-7.20;99.90
52305;DHT22;38248;52.722;6.734;2022-12-18T07:34:53;-7.20;99.90
52305;DHT22;38248;52.722;6.734;2022-12-18T07:44:09;-7.10;99.90
52305;DHT22;38248;52.722;6.734;2022-12-18T07:46:34;-7.10;99.90
52305;DHT22;38248;52.722;6.734;2022-12-18T07:49:00;-7.10;99.90
52305;DHT22;38248;52.722;6.734;2022-12-18T07:51:26;-7.10;99.90
52305;DHT22;38248;52.722;6.734;2022-12-18T07:53:51;-7.10;99.90
52305;DHT22;38248;52.722;6.734;2022-12-18T07:56:16;-6.90;99.90
52305;DHT22;38248;52.722;6.734;2022-12-18T08:02:09;-6.90;99.90
52305;DHT22;38248;52.722;6.734;2022-12-18T08:07:58;-6.90;99.90
52305;DHT22;38248;52.722;6.734;2022-12-18T11:32:56;-2.00;99.90
52305;DHT22;38248;52.722;6.734;2022-12-18T11:51:56;-1.60;99.90
52305;DHT22;38248;52.722;6.734;2022-12-18T12:34:13;-1.40;99.90
52305;DHT22;38248;52.722;6.734;2022-12-18T12:50:14;-1.20;99.90
52305;DHT22;38248;52.722;6.734;2022-12-18T13:08:23;-0.90;99.90
52305;DHT22;38248;52.722;6.734;2022-12-18T13:10:49;-0.90;99.90
52305;DHT22;38248;52.722;6.734;2022-12-18T13:25:44;-0.90;99.90
52305;DHT22;38248;52.722;6.734;2022-12-18T13:31:15;-0.80;99.90
52305;DHT22;38248;52.722;6.734;2022-12-18T13:36:40;-0.80;99.90
52305;DHT22;38248;52.722;6.734;2022-12-18T13:39:11;-0.50;99.90
52305;DHT22;38248;52.722;6.734;2022-12-18T13:45:00;-0.80;99.90
52305;DHT22;38248;52.722;6.734;2022-12-18T13:50:25;-0.90;99.90
52305;DHT22;38248;52.722;6.734;2022-12-18T13:53:01;-0.80;99.90
52305;DHT22;38248;52.722;6.734;2022-12-18T13:55:36;-0.80;99.90
52305;DHT22;38248;52.722;6.734;2022-12-18T13:58:03;-0.90;99.90
52305;DHT22;38248;52.722;6.734;2022-12-18T14:00:30;-0.90;99.90
52305;DHT22;38248;52.722;6.734;2022-12-18T14:06:01;-0.90;99.90
52305;DHT22;38248;52.722;6.734;2022-12-18T14:08:31;-1.00;99.90
52305;DHT22;38248;52.722;6.734;2022-12-18T14:11:17;-1.00;99.90
52305;DHT22;38248;52.722;6.734;2022-12-18T14:13:45;-1.00;99.90
52305;DHT22;38248;52.722;6.734;2022-12-18T14:16:24;-1.10;99.90
52305;DHT22;38248;52.722;6.734;2022-12-18T14:18:56;-1.10;99.90
52305;DHT22;38248;52.722;6.734;2022-12-18T14:32:32;-1.30;99.90
52305;DHT22;38248;52.722;6.734;2022-12-18T14:34:58;-1.30;99.90
52305;DHT22;38248;52.722;6.734;2022-12-18T14:37:37;-1.40;99.90
52305;DHT22;38248;52.722;6.734;2022-12-18T14:40:11;-1.40;99.90
52305;DHT22;38248;52.722;6.734;2022-12-18T14:42:41;-1.40;99.90
52305;DHT22;38248;52.722;6.734;2022-12-18T14:47:51;-1.40;99.90
52305;DHT22;38248;52.722;6.734;2022-12-18T14:50:17;-1.50;99.90
52305;DHT22;38248;52.722;6.734;2022-12-18T14:52:43;-1.40;99.90
52305;DHT22;38248;52.722;6.734;2022-12-18T14:55:18;-1.50;99.90
52305;DHT22;38248;52.722;6.734;2022-12-18T14:57:44;-1.60;99.90
52305;DHT22;38248;52.722;6.734;2022-12-18T15:00:15;-1.50;99.90
52305;DHT22;38248;52.722;6.734;2022-12-18T15:02:41;-1.60;99.90
52305;DHT22;38248;52.722;6.734;2022-12-18T15:05:17;-1.60;99.90
52305;DHT22;38248;52.722;6.734;2022-12-18T15:07:53;-1.50;99.90
52305;DHT22;38248;52.722;6.734;2022-12-18T15:10:20;-1.60;99.90
52305;DHT22;38248;52.722;6.734;2022-12-18T15:20:30;-1.70;99.90
52305;DHT22;38248;52.722;6.734;2022-12-18T15:22:56;-1.70;99.90
52305;DHT22;38248;52.722;6.734;2022-12-18T15:25:25;-1.70;99.90
52305;DHT22;38248;52.722;6.734;2022-12-18T15:27:52;-1.70;99.90
52305;DHT22;38248;52.722;6.734;2022-12-18T15:30:19;-1.70;99.90
52305;DHT22;38248;52.722;6.734;2022-12-18T15:32:45;-1.80;99.90
52305;DHT22;38248;52.722;6.734;2022-12-18T15:35:29;-1.70;99.90
52305;DHT22;38248;52.722;6.734;2022-12-18T15:40:27;-1.80;99.90
52305;DHT22;38248;52.722;6.734;2022-12-18T15:42:53;-1.80;99.90
52305;DHT22;38248;52.722;6.734;2022-12-18T15:45:38;-1.80;99.90
52305;DHT22;38248;52.722;6.734;2022-12-18T15:48:15;-1.80;99.90
52305;DHT22;38248;52.722;6.734;2022-12-18T15:53:13;-1.80;99.90
52305;DHT22;38248;52.722;6.734;2022-12-18T15:55:39;-1.80;99.90
52305;DHT22;38248;52.722;6.734;2022-12-18T15:58:23;-1.80;99.90
52305;DHT22;38248;52.722;6.734;2022-12-18T16:00:49;-1.80;99.90
52305;DHT22;38248;52.722;6.734;2022-12-18T16:03:14;-1.80;99.90
52305;DHT22;38248;52.722;6.734;2022-12-18T16:05:42;-1.80;99.90
52305;DHT22;38248;52.722;6.734;2022-12-18T16:08:10;-1.80;99.90
52305;DHT22;38248;52.722;6.734;2022-12-18T16:10:36;-1.80;99.90
52305;DHT22;38248;52.722;6.734;2022-12-18T16:13:01;-1.80;99.90
52305;DHT22;38248;52.722;6.734;2022-12-18T16:15:27;-1.80;99.90
52305;DHT22;38248;52.722;6.734;2022-12-18T16:17:53;-1.80;99.90
52305;DHT22;38248;52.722;6.734;2022-12-18T16:20:20;-1.90;99.90
52305;DHT22;38248;52.722;6.734;2022-12-18T16:22:50;-1.80;99.90
52305;DHT22;38248;52.722;6.734;2022-12-18T16:25:17;-1.70;99.90
52305;DHT22;38248;52.722;6.734;2022-12-18T16:27:46;-1.80;99.90
52305;DHT22;38248;52.722;6.734;2022-12-18T16:30:16;-1.90;99.90
52305;DHT22;38248;52.722;6.734;2022-12-18T16:35:12;-1.80;99.90
52305;DHT22;38248;52.722;6.734;2022-12-18T16:37:38;-1.90;99.90
52305;DHT22;38248;52.722;6.734;2022-12-18T16:40:04;-1.90;99.90
52305;DHT22;38248;52.722;6.734;2022-12-18T16:42:30;-1.80;99.90
52305;DHT22;38248;52.722;6.734;2022-12-18T16:44:56;-1.80;99.90
52305;DHT22;38248;52.722;6.734;2022-12-18T16:47:21;-1.80;99.90
52305;DHT22;38248;52.722;6.734;2022-12-18T16:49:47;-1.80;99.90
52305;DHT22;38248;52.722;6.734;2022-12-18T16:52:15;-1.70;99.90
52305;DHT22;38248;52.722;6.734;2022-12-18T16:54:41;-1.70;99.90
52305;DHT22;38248;52.722;6.734;2022-12-18T16:57:08;-1.70;99.90
52305;DHT22;38248;52.722;6.734;2022-12-18T16:59:34;-1.70;99.90
52305;DHT22;38248;52.722;6.734;2022-12-18T17:02:05;-1.70;99.90
52305;DHT22;38248;52.722;6.734;2022-12-18T17:04:35;-1.70;99.90
52305;DHT22;38248;52.722;6.734;2022-12-18T17:07:01;-1.50;99.90
52305;DHT22;38248;52.722;6.734;2022-12-18T17:09:29;-1.70;99.90
52305;DHT22;38248;52.722;6.734;2022-12-18T17:12:04;-1.70;99.90
52305;DHT22;38248;52.722;6.734;2022-12-18T17:15:01;-1.70;99.90
52305;DHT22;38248;52.722;6.734;2022-12-18T17:17:29;-1.70;99.90
52305;DHT22;38248;52.722;6.734;2022-12-18T17:19:54;-1.70;99.90
52305;DHT22;38248;52.722;6.734;2022-12-18T17:22:20;-1.60;99.90
52305;DHT22;38248;52.722;6.734;2022-12-18T17:24:47;-1.70;99.90
52305;DHT22;38248;52.722;6.734;2022-12-18T17:27:13;-1.60;99.90
52305;DHT22;38248;52.722;6.734;2022-12-18T17:29:39;-1.60;99.90
52305;DHT22;38248;52.722;6.734;2022-12-18T17:32:08;-1.60;99.90
52305;DHT22;38248;52.722;6.734;2022-12-18T17:34:36;-1.60;99.90
52305;DHT22;38248;52.722;6.734;2022-12-18T17:37:01;-1.50;99.90
52305;DHT22;38248;52.722;6.734;2022-12-18T17:39:27;-1.60;99.90
52305;DHT22;38248;52.722;6.734;2022-12-18T17:42:03;-1.70;99.90
52305;DHT22;38248;52.722;6.734;2022-12-18T17:44:29;-1.50;99.90
52305;DHT22;38248;52.722;6.734;2022-12-18T17:46:55;-1.50;99.90
52305;DHT22;38248;52.722;6.734;2022-12-18T17:49:21;-1.50;99.90
52305;DHT22;38248;52.722;6.734;2022-12-18T17:51:47;-1.60;99.90
52305;DHT22;38248;52.722;6.734;2022-12-18T17:54:13;-1.50;99.90
52305;DHT22;38248;52.722;6.734;2022-12-18T17:56:39;-1.50;99.90
52305;DHT22;38248;52.722;6.734;2022-12-18T17:59:07;-1.50;99.90
52305;DHT22;38248;52.722;6.734;2022-12-18T18:01:33;-1.50;99.90
52305;DHT22;38248;52.722;6.734;2022-12-18T18:03:59;-1.40;99.90
52305;DHT22;38248;52.722;6.734;2022-12-18T18:06:26;-1.40;99.90
52305;DHT22;38248;52.722;6.734;2022-12-18T18:08:52;-1.40;99.90
52305;DHT22;38248;52.722;6.734;2022-12-18T18:11:18;-1.50;99.90
52305;DHT22;38248;52.722;6.734;2022-12-18T18:14:04;-1.40;99.90
52305;DHT22;38248;52.722;6.734;2022-12-18T18:16:31;-1.40;99.90
52305;DHT22;38248;52.722;6.734;2022-12-18T18:18:58;-1.40;99.90
52305;DHT22;38248;52.722;6.734;2022-12-18T18:21:23;-1.40;99.90
52305;DHT22;38248;52.722;6.734;2022-12-18T18:23:49;-1.40;99.90
52305;DHT22;38248;52.722;6.734;2022-12-18T18:26:14;-1.40;99.90
52305;DHT22;38248;52.722;6.734;2022-12-18T18:28:40;-1.40;99.90
52305;DHT22;38248;52.722;6.734;2022-12-18T18:33:51;-1.40;99.90
52305;DHT22;38248;52.722;6.734;2022-12-18T18:36:16;-1.40;99.90
52305;DHT22;38248;52.722;6.734;2022-12-18T18:38:42;-1.40;99.90
52305;DHT22;38248;52.722;6.734;2022-12-18T18:41:09;-1.40;99.90
52305;DHT22;38248;52.722;6.734;2022-12-18T18:43:37;-1.40;99.90
52305;DHT22;38248;52.722;6.734;2022-12-18T18:46:03;-1.40;99.90
52305;DHT22;38248;52.722;6.734;2022-12-18T18:48:31;-0.90;99.90
52305;DHT22;38248;52.722;6.734;2022-12-18T18:50:57;-1.40;99.90
52305;DHT22;38248;52.722;6.734;2022-12-18T18:53:23;-1.30;99.90
52305;DHT22;38248;52.722;6.734;2022-12-18T18:55:49;-1.30;99.90
52305;DHT22;38248;52.722;6.734;2022-12-18T18:58:14;-1.30;99.90
52305;DHT22;38248;52.722;6.734;2022-12-18T19:00:40;-1.30;99.90
52305;DHT22;38248;52.722;6.734;2022-12-18T19:03:06;-1.30;99.90
52305;DHT22;38248;52.722;6.734;2022-12-18T19:05:31;-1.30;99.90
52305;DHT22;38248;52.722;6.734;2022-12-18T19:07:57;-1.30;99.90
52305;DHT22;38248;52.722;6.734;2022-12-18T19:10:23;-1.20;99.90
52305;DHT22;38248;52.722;6.734;2022-12-18T19:12:49;-1.20;99.90
52305;DHT22;38248;52.722;6.734;2022-12-18T19:15:33;-1.20;99.90
52305;DHT22;38248;52.722;6.734;2022-12-18T19:17:59;-1.00;99.90
52305;DHT22;38248;52.722;6.734;2022-12-18T19:20:25;-1.10;99.90
52305;DHT22;38248;52.722;6.734;2022-12-18T19:22:50;-1.00;99.90
52305;DHT22;38248;52.722;6.734;2022-12-18T19:25:16;-1.10;99.90
52305;DHT22;38248;52.722;6.734;2022-12-18T19:27:42;-1.00;99.90
52305;DHT22;38248;52.722;6.734;2022-12-18T19:30:08;-1.00;99.90
52305;DHT22;38248;52.722;6.734;2022-12-18T19:32:34;-1.00;99.90
52305;DHT22;38248;52.722;6.734;2022-12-18T19:35:00;-1.00;99.90
52305;DHT22;38248;52.722;6.734;2022-12-18T19:37:25;-0.90;99.90
52305;DHT22;38248;52.722;6.734;2022-12-18T19:39:51;-0.90;99.90
52305;DHT22;38248;52.722;6.734;2022-12-18T19:42:19;-0.90;99.90
52305;DHT22;38248;52.722;6.734;2022-12-18T19:44:44;-0.90;99.90
52305;DHT22;38248;52.722;6.734;2022-12-18T19:47:10;-0.80;99.90
52305;DHT22;38248;52.722;6.734;2022-12-18T19:49:36;-0.70;99.90
52305;DHT22;38248;52.722;6.734;2022-12-18T19:52:02;-0.80;99.90
52305;DHT22;38248;52.722;6.734;2022-12-18T19:54:28;-0.70;99.90
52305;DHT22;38248;52.722;6.734;2022-12-18T19:56:55;-0.60;99.90
52305;DHT22;38248;52.722;6.734;2022-12-18T19:59:20;-0.60;99.90
52305;DHT22;38248;52.722;6.734;2022-12-18T20:01:46;-0.50;99.90
52305;DHT22;38248;52.722;6.734;2022-12-18T20:04:12;-0.50;99.90
52305;DHT22;38248;52.722;6.734;2022-12-18T20:06:44;-0.50;99.90
52305;DHT22;38248;52.722;6.734;2022-12-18T20:09:10;-0.40;99.90
52305;DHT22;38248;52.722;6.734;2022-12-18T20:11:37;-0.20;99.90
52305;DHT22;38248;52.722;6.734;2022-12-18T20:14:03;-0.40;99.90
52305;DHT22;38248;52.722;6.734;2022-12-18T20:16:28;-0.30;99.90
52305;DHT22;38248;52.722;6.734;2022-12-18T20:18:54;-0.20;99.90
52305;DHT22;38248;52.722;6.734;2022-12-18T20:21:20;-0.30;99.90
52305;DHT22;38248;52.722;6.734;2022-12-18T20:23:45;-0.30;99.90
52305;DHT22;38248;52.722;6.734;2022-12-18T20:26:11;-0.20;99.90
52305;DHT22;38248;52.722;6.734;2022-12-18T20:28:37;-0.20;99.90
52305;DHT22;38248;52.722;6.734;2022-12-18T20:31:03;-0.20;99.90
52305;DHT22;38248;52.722;6.734;2022-12-18T20:33:30;-0.20;99.90
52305;DHT22;38248;52.722;6.734;2022-12-18T20:36:00;-0.20;99.90
52305;DHT22;38248;52.722;6.734;2022-12-18T20:38:27;-0.20;99.90
52305;DHT22;38248;52.722;6.734;2022-12-18T20:40:52;-0.10;99.90
52305;DHT22;38248;52.722;6.734;2022-12-18T20:43:18;-0.20;99.90
52305;DHT22;38248;52.722;6.734;2022-12-18T20:45:44;-0.10;99.90
52305;DHT22;38248;52.722;6.734;2022-12-18T20:48:10;-0.20;99.90
52305;DHT22;38248;52.722;6.734;2022-12-18T20:50:36;-0.20;99.90
52305;DHT22;38248;52.722;6.734;2022-12-18T20:53:02;-0.10;99.90
52305;DHT22;38248;52.722;6.734;2022-12-18T20:55:46;-0.10;99.90
52305;DHT22;38248;52.722;6.734;2022-12-18T20:58:11;-0.10;99.90
52305;DHT22;38248;52.722;6.734;2022-12-18T21:00:37;-0.10;99.90
52305;DHT22;38248;52.722;6.734;2022-12-18T21:03:06;-0.10;99.90
52305;DHT22;38248;52.722;6.734;2022-12-18T21:05:32;-0.10;99.90
52305;DHT22;38248;52.722;6.734;2022-12-18T21:07:58;-0.10;99.90
52305;DHT22;38248;52.722;6.734;2022-12-18T21:10:30;-0.10;99.90
52305;DHT22;38248;52.722;6.734;2022-12-18T21:12:55;-0.10;99.90
52305;DHT22;38248;52.722;6.734;2022-12-18T21:15:21;-0.10;99.90
52305;DHT22;38248;52.722;6.734;2022-12-18T21:17:47;0.30;99.90
52305;DHT22;38248;52.722;6.734;2022-12-18T21:20:13;-0.10;99.90
52305;DHT22;38248;52.722;6.734;2022-12-18T21:25:10;0.00;99.90
52305;DHT22;38248;52.722;6.734;2022-12-18T21:27:35;0.00;99.90
52305;DHT22;38248;52.722;6.734;2022-12-18T21:30:02;0.00;99.90
52305;DHT22;38248;52.722;6.734;2022-12-18T21:32:27;0.00;99.90
52305;DHT22;38248;52.722;6.734;2022-12-18T21:34:54;0.00;99.90
52305;DHT22;38248;52.722;6.734;2022-12-18T21:37:19;0.00;99.90
52305;DHT22;38248;52.722;6.734;2022-12-18T21:39:48;0.00;99.90
52305;DHT22;38248;52.722;6.734;2022-12-18T21:45:04;0.10;99.90
52305;DHT22;38248;52.722;6.734;2022-12-18T21:47:30;0.10;99.90
52305;DHT22;38248;52.722;6.734;2022-12-18T21:49:55;0.10;99.90
52305;DHT22;38248;52.722;6.734;2022-12-18T21:52:28;0.20;99.90
52305;DHT22;38248;52.722;6.734;2022-12-18T21:54:54;0.60;99.90
52305;DHT22;38248;52.722;6.734;2022-12-18T21:57:20;0.20;99.90
52305;DHT22;38248;52.722;6.734;2022-12-18T21:59:46;0.30;99.90
52305;DHT22;38248;52.722;6.734;2022-12-18T22:04:43;0.20;99.90
52305;DHT22;38248;52.722;6.734;2022-12-18T22:07:10;0.20;99.90
52305;DHT22;38248;52.722;6.734;2022-12-18T22:09:36;0.20;99.90
52305;DHT22;38248;52.722;6.734;2022-12-18T22:12:02;0.30;99.90
52305;DHT22;38248;52.722;6.734;2022-12-18T22:14:29;0.30;99.90
52305;DHT22;38248;52.722;6.734;2022-12-18T22:16:54;0.30;99.90
52305;DHT22;38248;52.722;6.734;2022-12-18T22:19:21;0.30;99.90
52305;DHT22;38248;52.722;6.734;2022-12-18T22:21:49;0.30;99.90
52305;DHT22;38248;52.722;6.734;2022-12-18T22:24:24;0.20;99.90
52305;DHT22;38248;52.722;6.734;2022-12-18T22:26:51;0.30;99.90
52305;DHT22;38248;52.722;6.734;2022-12-18T22:29:31;0.30;99.90
52305;DHT22;38248;52.722;6.734;2022-12-18T22:32:15;0.30;99.90
52305;DHT22;38248;52.722;6.734;2022-12-18T22:34:41;0.30;99.90
52305;DHT22;38248;52.722;6.734;2022-12-18T22:37:08;0.30;99.90
52305;DHT22;38248;52.722;6.734;2022-12-18T22:39:34;0.30;99.90
52305;DHT22;38248;52.722;6.734;2022-12-18T22:42:00;0.40;99.90
52305;DHT22;38248;52.722;6.734;2022-12-18T22:44:26;0.30;99.90
52305;DHT22;38248;52.722;6.734;2022-12-18T22:46:53;0.30;99.90
52305;DHT22;38248;52.722;6.734;2022-12-18T22:49:20;0.40;99.90
52305;DHT22;38248;52.722;6.734;2022-12-18T22:51:53;0.40;99.90
52305;DHT22;38248;52.722;6.734;2022-12-18T22:54:19;0.40;99.90
52305;DHT22;38248;52.722;6.734;2022-12-18T22:56:45;0.40;99.90
52305;DHT22;38248;52.722;6.734;2022-12-18T22:59:19;0.40;99.90
52305;DHT22;38248;52.722;6.734;2022-12-18T23:01:58;0.30;99.90
52305;DHT22;38248;52.722;6.734;2022-12-18T23:04:23;0.40;99.90
52305;DHT22;38248;52.722;6.734;2022-12-18T23:06:52;0.40;99.90
52305;DHT22;38248;52.722;6.734;2022-12-18T23:09:18;0.40;99.90
52305;DHT22;38248;52.722;6.734;2022-12-18T23:11:46;0.40;99.90
52305;DHT22;38248;52.722;6.734;2022-12-18T23:14:12;0.40;99.90
52305;DHT22;38248;52.722;6.734;2022-12-18T23:16:44;0.40;99.90
52305;DHT22;38248;52.722;6.734;2022-12-18T23:19:10;0.40;99.90
52305;DHT22;38248;52.722;6.734;2022-12-18T23:21:36;0.40;99.90
52305;DHT22;38248;52.722;6.734;2022-12-18T23:24:04;0.40;99.90
52305;DHT22;38248;52.722;6.734;2022-12-18T23:26:30;0.50;99.90
52305;DHT22;38248;52.722;6.734;2022-12-18T23:29:08;0.50;99.90
52305;DHT22;38248;52.722;6.734;2022-12-18T23:31:52;0.50;99.90
52305;DHT22;38248;52.722;6.734;2022-12-18T23:34:18;0.40;99.90
52305;DHT22;38248;52.722;6.734;2022-12-18T23:37:02;0.50;99.90
52305;DHT22;38248;52.722;6.734;2022-12-18T23:39:30;0.50;99.90
52305;DHT22;38248;52.722;6.734;2022-12-18T23:41:58;0.60;99.90
52305;DHT22;38248;52.722;6.734;2022-12-18T23:44:27;0.50;99.90
52305;DHT22;38248;52.722;6.734;2022-12-18T23:46:53;0.50;99.90
52305;DHT22;38248;52.722;6.734;2022-12-18T23:55:15;0.60;99.90
52305;DHT22;38248;52.722;6.734;2022-12-18T23:57:41;0.60;99.90
